Oatman, Arizona
Current Conditions -  °F | °C
As of 10:35 AM on Saturday 25 Oct 2014 (Local Time) from KIFP Reporting Station
Broken Clouds Broken Clouds  
Wind Chill: 77°   Ceiling: 11000
Heat Index: 78°   Visibility: 10mi
Dew Point: 43°   Wind: 0mph
Humidity: 29%   Direction: NA
Pressure: 30.03"   Gusts: NA
Location:  35.03°N, 114.38°W
Report Text: KIFP 251735Z AUTO 00000KT 10SM BKN110 25/06 A3003 RMK AO2 PWINO
Loading
Personal Weather Stations






























Interactive Weather Map
Tropical Storm Tracking
New forecast layout! Learn more

10-Day Weather Forecast

Advertisements
Track Severe Weather on mobile